<?xml version="1.0" encoding="UTF-8" standalone="no" ?>
<gpx xmlns="http://www.topografix.com/GPX/1/1" xmlns:xsi="http://www.w3.org/2001/XMLSchema-instance" xsi:schemaLocation="http://www.topografix.com/GPX/1/1 http://www.topografix.com/GPX/1/1/gpx.xsd" version="1.1" creator="VisuGPX - https://www.visugpx.com">
  <metadata>
    <name>Marillet_Faymoreau_13.6km</name>
    <desc><![CDATA[gnerando idor:7846981]]></desc>
  </metadata>
  <trk>
    <name><![CDATA[Faymoreau_13.6km-7846981]]></name>
    <extensions>
      <line xmlns="http://www.topografix.com/GPX/gpx_style/0/2">
        <color>0000FF</color>
        <width>4</width>
      </line>
    </extensions>
    <trkseg>
      <trkpt lat="46.55603" lon="-0.62896">
        <ele>105</ele>
        <time>2023-11-05T12:26:04Z</time>
      </trkpt>
      <trkpt lat="46.55479" lon="-0.62978">
        <ele>105</ele>
        <time>2023-11-05T12:29:06Z</time>
      </trkpt>
      <trkpt lat="46.55387" lon="-0.62858">
        <ele>95</ele>
        <time>2023-11-05T12:31:51Z</time>
      </trkpt>
      <trkpt lat="46.55405" lon="-0.62793">
        <ele>92</ele>
        <time>2023-11-05T12:32:55Z</time>
      </trkpt>
      <trkpt lat="46.55328" lon="-0.62785">
        <ele>88</ele>
        <time>2023-11-05T12:34:38Z</time>
      </trkpt>
      <trkpt lat="46.55121" lon="-0.63184">
        <ele>88</ele>
        <time>2023-11-05T12:42:17Z</time>
      </trkpt>
      <trkpt lat="46.55148" lon="-0.63686">
        <ele>90</ele>
        <time>2023-11-05T12:49:59Z</time>
      </trkpt>
      <trkpt lat="46.55284" lon="-0.64042">
        <ele>90</ele>
        <time>2023-11-05T12:56:13Z</time>
      </trkpt>
      <trkpt lat="46.556" lon="-0.6439">
        <ele>76</ele>
        <time>2023-11-05T13:05:01Z</time>
      </trkpt>
      <trkpt lat="46.55933" lon="-0.64806">
        <ele>87</ele>
        <time>2023-11-05T13:14:47Z</time>
      </trkpt>
      <trkpt lat="46.56264" lon="-0.6551">
        <ele>83</ele>
        <time>2023-11-05T13:27:50Z</time>
      </trkpt>
      <trkpt lat="46.55963" lon="-0.64823">
        <ele>86</ele>
        <time>2023-11-05T13:40:17Z</time>
      </trkpt>
      <trkpt lat="46.55939" lon="-0.64647">
        <ele>80</ele>
        <time>2023-11-05T13:43:02Z</time>
      </trkpt>
      <trkpt lat="46.56095" lon="-0.64523">
        <ele>69</ele>
        <time>2023-11-05T13:46:59Z</time>
      </trkpt>
      <trkpt lat="46.56154" lon="-0.64416">
        <ele>71</ele>
        <time>2023-11-05T13:49:05Z</time>
      </trkpt>
      <trkpt lat="46.56278" lon="-0.64377">
        <ele>76</ele>
        <time>2023-11-05T13:51:54Z</time>
      </trkpt>
      <trkpt lat="46.56196" lon="-0.64253">
        <ele>85</ele>
        <time>2023-11-05T13:54:32Z</time>
      </trkpt>
      <trkpt lat="46.56199" lon="-0.64038">
        <ele>99</ele>
        <time>2023-11-05T13:57:49Z</time>
      </trkpt>
      <trkpt lat="46.56128" lon="-0.63901">
        <ele>102</ele>
        <time>2023-11-05T14:00:27Z</time>
      </trkpt>
      <trkpt lat="46.56151" lon="-0.63639">
        <ele>108</ele>
        <time>2023-11-05T14:04:29Z</time>
      </trkpt>
      <trkpt lat="46.56255" lon="-0.63587">
        <ele>111</ele>
        <time>2023-11-05T14:06:56Z</time>
      </trkpt>
      <trkpt lat="46.56275" lon="-0.63261">
        <ele>114</ele>
        <time>2023-11-05T14:11:56Z</time>
      </trkpt>
      <trkpt lat="46.5655" lon="-0.63326">
        <ele>98</ele>
        <time>2023-11-05T14:18:08Z</time>
      </trkpt>
      <trkpt lat="46.56668" lon="-0.63502">
        <ele>89</ele>
        <time>2023-11-05T14:21:54Z</time>
      </trkpt>
      <trkpt lat="46.56789" lon="-0.63429">
        <ele>82</ele>
        <time>2023-11-05T14:24:48Z</time>
      </trkpt>
      <trkpt lat="46.5688" lon="-0.63557">
        <ele>81</ele>
        <time>2023-11-05T14:27:37Z</time>
      </trkpt>
      <trkpt lat="46.56753" lon="-0.6342">
        <ele>85</ele>
        <time>2023-11-05T14:31:08Z</time>
      </trkpt>
      <trkpt lat="46.56635" lon="-0.63471">
        <ele>92</ele>
        <time>2023-11-05T14:33:53Z</time>
      </trkpt>
      <trkpt lat="46.565" lon="-0.63274">
        <ele>101</ele>
        <time>2023-11-05T14:38:08Z</time>
      </trkpt>
      <trkpt lat="46.56264" lon="-0.63214">
        <ele>113</ele>
        <time>2023-11-05T14:43:28Z</time>
      </trkpt>
      <trkpt lat="46.5621" lon="-0.62854">
        <ele>111</ele>
        <time>2023-11-05T14:49:06Z</time>
      </trkpt>
      <trkpt lat="46.56473" lon="-0.62038">
        <ele>110</ele>
        <time>2023-11-05T15:02:53Z</time>
      </trkpt>
      <trkpt lat="46.56461" lon="-0.61412">
        <ele>111</ele>
        <time>2023-11-05T15:12:27Z</time>
      </trkpt>
      <trkpt lat="46.56423" lon="-0.61081">
        <ele>108</ele>
        <time>2023-11-05T15:17:35Z</time>
      </trkpt>
      <trkpt lat="46.56101" lon="-0.61489">
        <ele>105</ele>
        <time>2023-11-05T15:27:05Z</time>
      </trkpt>
      <trkpt lat="46.55839" lon="-0.61665">
        <ele>94</ele>
        <time>2023-11-05T15:33:30Z</time>
      </trkpt>
      <trkpt lat="46.55765" lon="-0.6148">
        <ele>101</ele>
        <time>2023-11-05T15:36:46Z</time>
      </trkpt>
      <trkpt lat="46.55774" lon="-0.61137">
        <ele>108</ele>
        <time>2023-11-05T15:42:01Z</time>
      </trkpt>
      <trkpt lat="46.55871" lon="-0.60626">
        <ele>107</ele>
        <time>2023-11-05T15:50:08Z</time>
      </trkpt>
      <trkpt lat="46.55694" lon="-0.60549">
        <ele>110</ele>
        <time>2023-11-05T15:54:14Z</time>
      </trkpt>
      <trkpt lat="46.55431" lon="-0.60656">
        <ele>105</ele>
        <time>2023-11-05T16:00:19Z</time>
      </trkpt>
      <trkpt lat="46.55119" lon="-0.60815">
        <ele>93</ele>
        <time>2023-11-05T16:07:40Z</time>
      </trkpt>
      <trkpt lat="46.54694" lon="-0.6106">
        <ele>109</ele>
        <time>2023-11-05T16:17:50Z</time>
      </trkpt>
      <trkpt lat="46.54877" lon="-0.61424">
        <ele>116</ele>
        <time>2023-11-05T16:24:44Z</time>
      </trkpt>
      <trkpt lat="46.55068" lon="-0.61506">
        <ele>113</ele>
        <time>2023-11-05T16:29:10Z</time>
      </trkpt>
      <trkpt lat="46.55124" lon="-0.61635">
        <ele>111</ele>
        <time>2023-11-05T16:31:30Z</time>
      </trkpt>
      <trkpt lat="46.55366" lon="-0.61914">
        <ele>95</ele>
        <time>2023-11-05T16:38:22Z</time>
      </trkpt>
      <trkpt lat="46.55431" lon="-0.62111">
        <ele>88</ele>
        <time>2023-11-05T16:41:42Z</time>
      </trkpt>
      <trkpt lat="46.5549" lon="-0.62163">
        <ele>87</ele>
        <time>2023-11-05T16:43:14Z</time>
      </trkpt>
      <trkpt lat="46.55517" lon="-0.62446">
        <ele>84</ele>
        <time>2023-11-05T16:47:36Z</time>
      </trkpt>
      <trkpt lat="46.55443" lon="-0.62549">
        <ele>82</ele>
        <time>2023-11-05T16:49:53Z</time>
      </trkpt>
      <trkpt lat="46.55437" lon="-0.62806">
        <ele>94</ele>
        <time>2023-11-05T16:53:49Z</time>
      </trkpt>
      <trkpt lat="46.55603" lon="-0.62892">
        <ele>105</ele>
        <time>2023-11-05T16:57:44Z</time>
      </trkpt>
    </trkseg>
  </trk>
</gpx>